sensor_id;sensor_type;location;lat;lon;timestamp;pressure;altitude;pressure_sealevel;temperature;humidity
64687;BME280;51113;53.646;-113.674;2023-07-30T00:02:03;94202.13;;;21.28;54.34
64687;BME280;51113;53.646;-113.674;2023-07-30T00:04:32;94193.56;;;21.05;54.65
64687;BME280;51113;53.646;-113.674;2023-07-30T00:07:01;94189.22;;;21.09;54.43
64687;BME280;51113;53.646;-113.674;2023-07-30T00:09:29;94194.50;;;21.35;53.96
64687;BME280;51113;53.646;-113.674;2023-07-30T00:11:58;94184.97;;;21.51;53.82
64687;BME280;51113;53.646;-113.674;2023-07-30T00:14:26;94185.13;;;21.46;52.96
64687;BME280;51113;53.646;-113.674;2023-07-30T00:16:54;94184.66;;;21.53;52.14
64687;BME280;51113;53.646;-113.674;2023-07-30T00:19:23;94177.66;;;21.57;52.88
64687;BME280;51113;53.646;-113.674;2023-07-30T00:21:52;94178.56;;;21.61;52.84
64687;BME280;51113;53.646;-113.674;2023-07-30T00:24:21;94161.38;;;21.29;53.22
64687;BME280;51113;53.646;-113.674;2023-07-30T00:26:50;94161.47;;;21.58;54.29
64687;BME280;51113;53.646;-113.674;2023-07-30T00:29:18;94163.72;;;21.31;54.17
64687;BME280;51113;53.646;-113.674;2023-07-30T00:31:47;94176.63;;;21.23;55.20
64687;BME280;51113;53.646;-113.674;2023-07-30T00:34:16;94161.53;;;21.33;54.96
64687;BME280;51113;53.646;-113.674;2023-07-30T00:36:45;94157.63;;;21.47;54.42
64687;BME280;51113;53.646;-113.674;2023-07-30T00:39:13;94158.88;;;21.41;54.44
64687;BME280;51113;53.646;-113.674;2023-07-30T00:41:42;94155.72;;;21.56;53.78
64687;BME280;51113;53.646;-113.674;2023-07-30T00:44:10;94155.88;;;21.60;52.65
64687;BME280;51113;53.646;-113.674;2023-07-30T00:46:39;94155.91;;;21.43;53.01
64687;BME280;51113;53.646;-113.674;2023-07-30T00:49:08;94139.84;;;21.56;54.80
64687;BME280;51113;53.646;-113.674;2023-07-30T00:51:37;94144.22;;;21.52;54.48
64687;BME280;51113;53.646;-113.674;2023-07-30T00:54:06;94131.53;;;21.20;54.33
64687;BME280;51113;53.646;-113.674;2023-07-30T00:56:35;94136.03;;;21.19;55.68
64687;BME280;51113;53.646;-113.674;2023-07-30T00:59:04;94131.72;;;21.06;55.27
64687;BME280;51113;53.646;-113.674;2023-07-30T01:01:33;94133.41;;;21.19;55.94
64687;BME280;51113;53.646;-113.674;2023-07-30T01:04:04;94129.97;;;21.36;56.73
64687;BME280;51113;53.646;-113.674;2023-07-30T01:06:33;94131.06;;;21.35;56.39
64687;BME280;51113;53.646;-113.674;2023-07-30T01:09:02;94125.78;;;21.35;55.47
64687;BME280;51113;53.646;-113.674;2023-07-30T01:11:31;94126.38;;;21.41;56.74
64687;BME280;51113;53.646;-113.674;2023-07-30T01:14:00;94125.66;;;21.23;56.50
64687;BME280;51113;53.646;-113.674;2023-07-30T01:16:29;94123.63;;;21.11;56.18
64687;BME280;51113;53.646;-113.674;2023-07-30T01:21:26;94113.97;;;21.33;55.83
64687;BME280;51113;53.646;-113.674;2023-07-30T01:23:55;94125.78;;;21.26;56.20
64687;BME280;51113;53.646;-113.674;2023-07-30T01:26:27;94118.34;;;21.28;56.79
64687;BME280;51113;53.646;-113.674;2023-07-30T01:29:01;94114.28;;;21.31;56.97
64687;BME280;51113;53.646;-113.674;2023-07-30T01:31:34;94114.53;;;21.47;57.35
64687;BME280;51113;53.646;-113.674;2023-07-30T01:34:04;94110.19;;;21.42;57.23
64687;BME280;51113;53.646;-113.674;2023-07-30T01:36:35;94099.63;;;21.42;56.98
64687;BME280;51113;53.646;-113.674;2023-07-30T01:39:03;94110.72;;;21.65;57.26
64687;BME280;51113;53.646;-113.674;2023-07-30T01:41:33;94112.91;;;21.25;57.34
64687;BME280;51113;53.646;-113.674;2023-07-30T01:44:02;94110.44;;;20.94;58.44
64687;BME280;51113;53.646;-113.674;2023-07-30T01:46:31;94124.78;;;20.67;58.77
64687;BME280;51113;53.646;-113.674;2023-07-30T01:49:00;94118.38;;;20.85;58.78
64687;BME280;51113;53.646;-113.674;2023-07-30T01:51:28;94116.19;;;21.05;57.72
64687;BME280;51113;53.646;-113.674;2023-07-30T01:53:57;94110.31;;;20.90;58.95
64687;BME280;51113;53.646;-113.674;2023-07-30T01:56:25;94108.44;;;20.91;58.68
64687;BME280;51113;53.646;-113.674;2023-07-30T01:58:54;94118.69;;;20.84;58.87
64687;BME280;51113;53.646;-113.674;2023-07-30T02:01:23;94102.56;;;20.77;58.79
64687;BME280;51113;53.646;-113.674;2023-07-30T02:03:52;94110.63;;;20.63;60.28
64687;BME280;51113;53.646;-113.674;2023-07-30T02:06:20;94113.13;;;20.59;59.20
64687;BME280;51113;53.646;-113.674;2023-07-30T02:08:49;94103.50;;;20.72;59.60
64687;BME280;51113;53.646;-113.674;2023-07-30T02:11:18;94101.00;;;20.58;59.56
64687;BME280;51113;53.646;-113.674;2023-07-30T02:13:46;94103.34;;;20.69;59.42
64687;BME280;51113;53.646;-113.674;2023-07-30T02:16:15;94096.19;;;20.52;60.25
64687;BME280;51113;53.646;-113.674;2023-07-30T02:18:44;94097.28;;;20.42;61.08
64687;BME280;51113;53.646;-113.674;2023-07-30T02:21:13;94095.75;;;20.41;61.44
64687;BME280;51113;53.646;-113.674;2023-07-30T02:23:42;94095.75;;;20.41;61.03
64687;BME280;51113;53.646;-113.674;2023-07-30T02:26:11;94091.25;;;20.42;61.21
64687;BME280;51113;53.646;-113.674;2023-07-30T02:28:39;94087.94;;;20.36;61.01
64687;BME280;51113;53.646;-113.674;2023-07-30T02:31:08;94098.19;;;20.29;61.53
64687;BME280;51113;53.646;-113.674;2023-07-30T02:33:37;94096.47;;;20.16;61.50
64687;BME280;51113;53.646;-113.674;2023-07-30T02:36:05;94092.09;;;20.03;61.47
64687;BME280;51113;53.646;-113.674;2023-07-30T02:38:34;94086.34;;;19.92;61.47
64687;BME280;51113;53.646;-113.674;2023-07-30T02:41:03;94089.91;;;19.87;60.79
64687;BME280;51113;53.646;-113.674;2023-07-30T02:43:31;94074.38;;;19.77;61.10
64687;BME280;51113;53.646;-113.674;2023-07-30T02:46:00;94080.56;;;19.73;60.87
64687;BME280;51113;53.646;-113.674;2023-07-30T02:48:29;94077.75;;;19.60;61.60
64687;BME280;51113;53.646;-113.674;2023-07-30T02:50:58;94080.34;;;19.52;61.63
64687;BME280;51113;53.646;-113.674;2023-07-30T02:53:29;94083.69;;;19.44;61.54
64687;BME280;51113;53.646;-113.674;2023-07-30T02:55:58;94080.44;;;19.38;61.90
64687;BME280;51113;53.646;-113.674;2023-07-30T02:58:27;94081.94;;;19.30;62.24
64687;BME280;51113;53.646;-113.674;2023-07-30T03:00:55;94082.38;;;19.24;62.80
64687;BME280;51113;53.646;-113.674;2023-07-30T03:03:33;94071.19;;;19.18;62.90
64687;BME280;51113;53.646;-113.674;2023-07-30T03:06:02;94084.50;;;19.13;63.59
64687;BME280;51113;53.646;-113.674;2023-07-30T03:08:30;94072.84;;;19.06;63.50
64687;BME280;51113;53.646;-113.674;2023-07-30T03:10:59;94066.16;;;18.99;63.56
64687;BME280;51113;53.646;-113.674;2023-07-30T03:13:28;94076.38;;;19.01;63.06
64687;BME280;51113;53.646;-113.674;2023-07-30T03:15:56;94073.72;;;18.92;63.38
64687;BME280;51113;53.646;-113.674;2023-07-30T03:18:25;94077.84;;;18.85;63.17
64687;BME280;51113;53.646;-113.674;2023-07-30T03:21:00;94073.78;;;18.79;62.86
64687;BME280;51113;53.646;-113.674;2023-07-30T03:23:29;94081.63;;;18.70;63.75
64687;BME280;51113;53.646;-113.674;2023-07-30T03:25:58;94078.81;;;18.66;63.21
64687;BME280;51113;53.646;-113.674;2023-07-30T03:28:28;94078.94;;;18.61;63.91
64687;BME280;51113;53.646;-113.674;2023-07-30T03:30:57;94071.56;;;18.50;64.44
64687;BME280;51113;53.646;-113.674;2023-07-30T03:33:26;94081.41;;;18.44;64.66
64687;BME280;51113;53.646;-113.674;2023-07-30T03:35:54;94073.16;;;18.37;65.40
64687;BME280;51113;53.646;-113.674;2023-07-30T03:38:23;94078.34;;;18.28;65.95
64687;BME280;51113;53.646;-113.674;2023-07-30T03:40:51;94075.06;;;18.23;66.46
64687;BME280;51113;53.646;-113.674;2023-07-30T03:43:20;94069.44;;;18.16;67.41
64687;BME280;51113;53.646;-113.674;2023-07-30T03:45:49;94075.56;;;18.11;67.35
64687;BME280;51113;53.646;-113.674;2023-07-30T03:48:17;94068.56;;;18.06;67.76
64687;BME280;51113;53.646;-113.674;2023-07-30T03:50:46;94065.47;;;18.04;68.31
64687;BME280;51113;53.646;-113.674;2023-07-30T03:53:15;94062.16;;;17.99;69.10
64687;BME280;51113;53.646;-113.674;2023-07-30T03:55:43;94056.25;;;17.93;69.30
64687;BME280;51113;53.646;-113.674;2023-07-30T03:58:12;94058.97;;;17.88;70.24
64687;BME280;51113;53.646;-113.674;2023-07-30T04:00:42;94061.41;;;17.85;70.23
64687;BME280;51113;53.646;-113.674;2023-07-30T04:03:10;94058.97;;;17.88;70.60
64687;BME280;51113;53.646;-113.674;2023-07-30T04:05:39;94058.31;;;17.83;71.03
64687;BME280;51113;53.646;-113.674;2023-07-30T04:08:08;94055.00;;;17.77;71.85
64687;BME280;51113;53.646;-113.674;2023-07-30T04:10:36;94063.59;;;17.69;72.27
64687;BME280;51113;53.646;-113.674;2023-07-30T04:13:05;94056.56;;;17.64;72.83
64687;BME280;51113;53.646;-113.674;2023-07-30T04:15:36;94064.19;;;17.66;73.47
64687;BME280;51113;53.646;-113.674;2023-07-30T04:18:04;94063.19;;;17.62;73.70
64687;BME280;51113;53.646;-113.674;2023-07-30T04:20:33;94056.47;;;17.56;74.00
64687;BME280;51113;53.646;-113.674;2023-07-30T04:23:01;94067.84;;;17.51;74.24
64687;BME280;51113;53.646;-113.674;2023-07-30T04:25:30;94063.00;;;17.44;74.88
64687;BME280;51113;53.646;-113.674;2023-07-30T04:27:59;94059.19;;;17.37;75.24
64687;BME280;51113;53.646;-113.674;2023-07-30T04:30:28;94055.69;;;17.41;75.04
64687;BME280;51113;53.646;-113.674;2023-07-30T04:32:57;94059.88;;;17.29;75.74
64687;BME280;51113;53.646;-113.674;2023-07-30T04:35:26;94063.00;;;17.31;75.61
64687;BME280;51113;53.646;-113.674;2023-07-30T04:37:55;94062.22;;;17.30;75.68
64687;BME280;51113;53.646;-113.674;2023-07-30T04:40:24;94053.47;;;17.21;75.88
64687;BME280;51113;53.646;-113.674;2023-07-30T04:42:52;94048.97;;;17.08;76.16
64687;BME280;51113;53.646;-113.674;2023-07-30T04:45:24;94064.34;;;17.15;76.13
64687;BME280;51113;53.646;-113.674;2023-07-30T04:47:52;94059.59;;;17.17;75.81
64687;BME280;51113;53.646;-113.674;2023-07-30T04:50:21;94059.97;;;17.10;76.09
64687;BME280;51113;53.646;-113.674;2023-07-30T04:52:51;94056.28;;;17.11;75.94
64687;BME280;51113;53.646;-113.674;2023-07-30T04:55:19;94057.72;;;17.03;75.60
64687;BME280;51113;53.646;-113.674;2023-07-30T04:57:48;94056.38;;;17.06;75.44
64687;BME280;51113;53.646;-113.674;2023-07-30T05:00:17;94061.22;;;16.99;75.52
64687;BME280;51113;53.646;-113.674;2023-07-30T05:02:46;94066.47;;;16.99;75.71
64687;BME280;51113;53.646;-113.674;2023-07-30T05:05:14;94062.16;;;16.89;75.80
64687;BME280;51113;53.646;-113.674;2023-07-30T05:07:43;94057.22;;;16.88;75.83
64687;BME280;51113;53.646;-113.674;2023-07-30T05:10:12;94063.91;;;16.80;76.16
64687;BME280;51113;53.646;-113.674;2023-07-30T05:12:41;94063.13;;;16.79;75.93
64687;BME280;51113;53.646;-113.674;2023-07-30T05:15:09;94059.22;;;16.77;76.21
64687;BME280;51113;53.646;-113.674;2023-07-30T05:17:38;94054.34;;;16.70;76.54
64687;BME280;51113;53.646;-113.674;2023-07-30T05:20:07;94057.06;;;16.65;76.52
64687;BME280;51113;53.646;-113.674;2023-07-30T05:22:36;94047.97;;;16.58;77.20
64687;BME280;51113;53.646;-113.674;2023-07-30T05:25:06;94049.06;;;16.57;77.03
64687;BME280;51113;53.646;-113.674;2023-07-30T05:27:37;94047.50;;;16.56;76.77
64687;BME280;51113;53.646;-113.674;2023-07-30T05:30:06;94048.63;;;16.50;77.26
64687;BME280;51113;53.646;-113.674;2023-07-30T05:32:35;94047.38;;;16.47;77.47
64687;BME280;51113;53.646;-113.674;2023-07-30T05:35:04;94060.28;;;16.43;77.58
64687;BME280;51113;53.646;-113.674;2023-07-30T05:37:33;94045.59;;;16.42;77.59
64687;BME280;51113;53.646;-113.674;2023-07-30T05:40:02;94051.50;;;16.34;77.62
64687;BME280;51113;53.646;-113.674;2023-07-30T05:42:31;94054.41;;;16.33;77.73
64687;BME280;51113;53.646;-113.674;2023-07-30T05:45:00;94053.06;;;16.35;77.51
64687;BME280;51113;53.646;-113.674;2023-07-30T05:47:28;94051.28;;;16.31;77.63
64687;BME280;51113;53.646;-113.674;2023-07-30T05:49:57;94055.59;;;16.40;77.07
64687;BME280;51113;53.646;-113.674;2023-07-30T05:52:26;94059.06;;;16.36;76.96
64687;BME280;51113;53.646;-113.674;2023-07-30T05:54:54;94052.63;;;16.28;77.63
64687;BME280;51113;53.646;-113.674;2023-07-30T05:57:23;94053.63;;;16.32;77.00
64687;BME280;51113;53.646;-113.674;2023-07-30T05:59:52;94053.41;;;16.29;76.91
64687;BME280;51113;53.646;-113.674;2023-07-30T06:02:20;94056.25;;;16.32;76.74
64687;BME280;51113;53.646;-113.674;2023-07-30T06:04:49;94059.81;;;16.23;77.13
64687;BME280;51113;53.646;-113.674;2023-07-30T06:07:18;94057.81;;;16.14;77.24
64687;BME280;51113;53.646;-113.674;2023-07-30T06:09:46;94054.50;;;16.09;77.85
64687;BME280;51113;53.646;-113.674;2023-07-30T06:12:15;94044.78;;;16.09;77.68
64687;BME280;51113;53.646;-113.674;2023-07-30T06:14:43;94051.16;;;16.03;77.63
64687;BME280;51113;53.646;-113.674;2023-07-30T06:17:12;94045.72;;;16.00;78.16
64687;BME280;51113;53.646;-113.674;2023-07-30T06:19:41;94050.19;;;15.99;77.62
64687;BME280;51113;53.646;-113.674;2023-07-30T06:22:10;94057.03;;;15.95;77.82
64687;BME280;51113;53.646;-113.674;2023-07-30T06:24:38;94046.06;;;15.93;77.91
64687;BME280;51113;53.646;-113.674;2023-07-30T06:27:07;94050.81;;;15.91;78.10
64687;BME280;51113;53.646;-113.674;2023-07-30T06:29:37;94049.31;;;15.85;78.16
64687;BME280;51113;53.646;-113.674;2023-07-30T06:32:06;94048.56;;;15.85;78.01
64687;BME280;51113;53.646;-113.674;2023-07-30T06:34:35;94049.13;;;15.81;78.04
64687;BME280;51113;53.646;-113.674;2023-07-30T06:37:04;94048.13;;;15.77;78.44
64687;BME280;51113;53.646;-113.674;2023-07-30T06:39:32;94041.66;;;15.70;78.26
64687;BME280;51113;53.646;-113.674;2023-07-30T06:42:01;94049.03;;;15.68;78.78
64687;BME280;51113;53.646;-113.674;2023-07-30T06:44:30;94044.00;;;15.71;78.30
64687;BME280;51113;53.646;-113.674;2023-07-30T06:46:58;94041.47;;;15.66;78.35
64687;BME280;51113;53.646;-113.674;2023-07-30T06:49:27;94047.97;;;15.69;78.18
64687;BME280;51113;53.646;-113.674;2023-07-30T06:51:56;94046.97;;;15.65;78.33
64687;BME280;51113;53.646;-113.674;2023-07-30T06:54:25;94054.63;;;15.61;78.29
64687;BME280;51113;53.646;-113.674;2023-07-30T06:56:54;94052.81;;;15.57;78.24
64687;BME280;51113;53.646;-113.674;2023-07-30T06:59:22;94050.72;;;15.59;78.22
64687;BME280;51113;53.646;-113.674;2023-07-30T07:01:51;94044.47;;;15.55;78.31
64687;BME280;51113;53.646;-113.674;2023-07-30T07:04:20;94046.06;;;15.50;78.28
64687;BME280;51113;53.646;-113.674;2023-07-30T07:06:48;94053.94;;;15.50;77.95
64687;BME280;51113;53.646;-113.674;2023-07-30T07:09:17;94048.41;;;15.52;77.94
64687;BME280;51113;53.646;-113.674;2023-07-30T07:11:46;94051.03;;;15.52;77.64
64687;BME280;51113;53.646;-113.674;2023-07-30T07:14:14;94044.50;;;15.49;77.60
64687;BME280;51113;53.646;-113.674;2023-07-30T07:16:43;94046.34;;;15.49;77.57
64687;BME280;51113;53.646;-113.674;2023-07-30T07:19:12;94036.16;;;15.47;77.22
64687;BME280;51113;53.646;-113.674;2023-07-30T07:21:41;94038.00;;;15.47;77.20
64687;BME280;51113;53.646;-113.674;2023-07-30T07:24:09;94037.22;;;15.46;77.43
64687;BME280;51113;53.646;-113.674;2023-07-30T07:26:38;94032.06;;;15.41;77.50
64687;BME280;51113;53.646;-113.674;2023-07-30T07:29:07;94031.34;;;15.36;77.60
64687;BME280;51113;53.646;-113.674;2023-07-30T07:31:35;94031.72;;;15.24;78.13
64687;BME280;51113;53.646;-113.674;2023-07-30T07:34:05;94031.78;;;15.19;78.10
64687;BME280;51113;53.646;-113.674;2023-07-30T07:36:34;94035.47;;;15.18;78.09
64687;BME280;51113;53.646;-113.674;2023-07-30T07:39:04;94027.94;;;15.11;78.63
64687;BME280;51113;53.646;-113.674;2023-07-30T07:41:32;94019.09;;;15.07;78.43
64687;BME280;51113;53.646;-113.674;2023-07-30T07:44:01;94021.44;;;15.09;78.44
64687;BME280;51113;53.646;-113.674;2023-07-30T07:46:30;94029.63;;;15.02;78.82
64687;BME280;51113;53.646;-113.674;2023-07-30T07:48:59;94028.06;;;15.01;78.56
64687;BME280;51113;53.646;-113.674;2023-07-30T07:51:28;94023.44;;;14.93;78.91
64687;BME280;51113;53.646;-113.674;2023-07-30T07:53:57;94027.38;;;14.91;78.83
64687;BME280;51113;53.646;-113.674;2023-07-30T07:56:26;94020.38;;;14.86;79.14
64687;BME280;51113;53.646;-113.674;2023-07-30T07:58:55;94016.47;;;14.83;79.04
64687;BME280;51113;53.646;-113.674;2023-07-30T08:01:24;94022.75;;;14.82;79.06
64687;BME280;51113;53.646;-113.674;2023-07-30T08:03:52;94014.63;;;14.84;78.54
64687;BME280;51113;53.646;-113.674;2023-07-30T08:06:21;94011.28;;;14.78;78.82
64687;BME280;51113;53.646;-113.674;2023-07-30T08:08:50;94013.69;;;14.75;79.03
64687;BME280;51113;53.646;-113.674;2023-07-30T08:11:18;94016.31;;;14.75;78.75
64687;BME280;51113;53.646;-113.674;2023-07-30T08:13:46;94008.50;;;14.70;78.75
64687;BME280;51113;53.646;-113.674;2023-07-30T08:16:15;94000.16;;;14.68;78.62
64687;BME280;51113;53.646;-113.674;2023-07-30T08:18:44;94006.22;;;14.63;79.00
64687;BME280;51113;53.646;-113.674;2023-07-30T08:21:12;94005.66;;;14.66;78.56
64687;BME280;51113;53.646;-113.674;2023-07-30T08:23:41;93997.59;;;14.63;78.59
64687;BME280;51113;53.646;-113.674;2023-07-30T08:26:10;93994.69;;;14.64;78.39
64687;BME280;51113;53.646;-113.674;2023-07-30T08:28:39;93985.56;;;14.62;78.43
64687;BME280;51113;53.646;-113.674;2023-07-30T08:31:07;93998.94;;;14.60;78.37
64687;BME280;51113;53.646;-113.674;2023-07-30T08:33:36;93989.28;;;14.56;78.50
64687;BME280;51113;53.646;-113.674;2023-07-30T08:36:04;93993.19;;;14.58;78.38
64687;BME280;51113;53.646;-113.674;2023-07-30T08:38:33;93986.47;;;14.52;77.95
64687;BME280;51113;53.646;-113.674;2023-07-30T08:41:02;93976.78;;;14.52;77.97
64687;BME280;51113;53.646;-113.674;2023-07-30T08:43:31;93975.44;;;14.55;77.78
64687;BME280;51113;53.646;-113.674;2023-07-30T08:46:00;93971.78;;;14.56;77.18
64687;BME280;51113;53.646;-113.674;2023-07-30T08:48:29;93972.88;;;14.50;77.65
64687;BME280;51113;53.646;-113.674;2023-07-30T08:50:58;93968.75;;;14.44;77.83
64687;BME280;51113;53.646;-113.674;2023-07-30T08:53:29;93975.00;;;14.48;77.20
64687;BME280;51113;53.646;-113.674;2023-07-30T08:55:59;93969.25;;;14.46;77.03
64687;BME280;51113;53.646;-113.674;2023-07-30T08:58:29;93968.75;;;14.44;76.95
64687;BME280;51113;53.646;-113.674;2023-07-30T09:00:59;93964.06;;;14.41;76.92
64687;BME280;51113;53.646;-113.674;2023-07-30T09:03:30;93960.94;;;14.39;76.48
64687;BME280;51113;53.646;-113.674;2023-07-30T09:06:01;93946.31;;;14.38;75.50
64687;BME280;51113;53.646;-113.674;2023-07-30T09:08:30;93958.75;;;14.51;75.35
64687;BME280;51113;53.646;-113.674;2023-07-30T09:11:09;93956.69;;;14.48;75.44
64687;BME280;51113;53.646;-113.674;2023-07-30T09:13:40;93950.91;;;14.51;75.03
64687;BME280;51113;53.646;-113.674;2023-07-30T09:16:13;93948.06;;;14.47;74.90
64687;BME280;51113;53.646;-113.674;2023-07-30T09:18:43;93944.19;;;14.45;74.43
64687;BME280;51113;53.646;-113.674;2023-07-30T09:21:14;93960.41;;;14.42;75.31
64687;BME280;51113;53.646;-113.674;2023-07-30T09:23:44;93944.72;;;14.42;74.95
64687;BME280;51113;53.646;-113.674;2023-07-30T09:26:13;93945.81;;;14.36;75.27
64687;BME280;51113;53.646;-113.674;2023-07-30T09:28:42;93944.31;;;14.30;75.18
64687;BME280;51113;53.646;-113.674;2023-07-30T09:31:11;93946.63;;;14.31;74.36
64687;BME280;51113;53.646;-113.674;2023-07-30T09:33:48;93946.03;;;14.39;73.72
64687;BME280;51113;53.646;-113.674;2023-07-30T09:36:18;93943.63;;;14.48;72.96
64687;BME280;51113;53.646;-113.674;2023-07-30T09:38:47;93939.97;;;14.49;73.12
64687;BME280;51113;53.646;-113.674;2023-07-30T09:41:17;93940.97;;;14.53;71.99
64687;BME280;51113;53.646;-113.674;2023-07-30T09:43:46;93933.78;;;14.64;71.49
64687;BME280;51113;53.646;-113.674;2023-07-30T09:46:15;93927.19;;;14.71;70.93
64687;BME280;51113;53.646;-113.674;2023-07-30T09:48:44;93926.22;;;14.62;71.49
64687;BME280;51113;53.646;-113.674;2023-07-30T09:51:13;93923.72;;;14.52;71.94
64687;BME280;51113;53.646;-113.674;2023-07-30T09:53:43;93921.56;;;14.59;71.31
64687;BME280;51113;53.646;-113.674;2023-07-30T09:56:11;93924.16;;;14.59;71.42
64687;BME280;51113;53.646;-113.674;2023-07-30T09:58:40;93912.28;;;14.48;72.68
64687;BME280;51113;53.646;-113.674;2023-07-30T10:01:10;93914.94;;;14.43;72.11
64687;BME280;51113;53.646;-113.674;2023-07-30T10:03:39;93914.28;;;14.56;71.20
64687;BME280;51113;53.646;-113.674;2023-07-30T10:06:10;93908.50;;;14.59;70.87
64687;BME280;51113;53.646;-113.674;2023-07-30T10:08:41;93903.53;;;14.58;70.95
64687;BME280;51113;53.646;-113.674;2023-07-30T10:11:10;93909.78;;;14.62;71.04
64687;BME280;51113;53.646;-113.674;2023-07-30T10:13:40;93903.53;;;14.58;70.92
64687;BME280;51113;53.646;-113.674;2023-07-30T10:16:11;93889.19;;;14.55;70.91
64687;BME280;51113;53.646;-113.674;2023-07-30T10:18:41;93900.69;;;14.54;71.12
64687;BME280;51113;53.646;-113.674;2023-07-30T10:21:11;93901.81;;;14.48;71.29
64687;BME280;51113;53.646;-113.674;2023-07-30T10:23:59;93898.69;;;14.46;71.43
64687;BME280;51113;53.646;-113.674;2023-07-30T10:26:34;93898.69;;;14.46;71.61
64687;BME280;51113;53.646;-113.674;2023-07-30T10:29:17;93894.84;;;14.38;71.84
64687;BME280;51113;53.646;-113.674;2023-07-30T10:31:54;93896.38;;;14.44;71.13
64687;BME280;51113;53.646;-113.674;2023-07-30T10:34:27;93890.84;;;14.46;70.86
64687;BME280;51113;53.646;-113.674;2023-07-30T10:37:17;93889.03;;;14.46;71.27
64687;BME280;51113;53.646;-113.674;2023-07-30T10:39:50;93890.38;;;14.39;71.72
64687;BME280;51113;53.646;-113.674;2023-07-30T10:42:18;93888.31;;;14.36;71.42
64687;BME280;51113;53.646;-113.674;2023-07-30T10:44:49;93883.94;;;14.31;71.69
64687;BME280;51113;53.646;-113.674;2023-07-30T10:47:17;93886.31;;;14.28;71.80
64687;BME280;51113;53.646;-113.674;2023-07-30T10:50:02;93881.47;;;14.40;70.67
64687;BME280;51113;53.646;-113.674;2023-07-30T10:52:31;93885.16;;;14.39;71.04
64687;BME280;51113;53.646;-113.674;2023-07-30T10:55:00;93884.88;;;14.40;70.85
64687;BME280;51113;53.646;-113.674;2023-07-30T10:57:31;93884.94;;;14.35;71.08
64687;BME280;51113;53.646;-113.674;2023-07-30T11:00:03;93882.88;;;14.32;71.08
64687;BME280;51113;53.646;-113.674;2023-07-30T11:02:32;93880.47;;;14.36;70.76
64687;BME280;51113;53.646;-113.674;2023-07-30T11:05:21;93878.69;;;14.31;71.20
64687;BME280;51113;53.646;-113.674;2023-07-30T11:07:51;93876.31;;;14.35;71.02
64687;BME280;51113;53.646;-113.674;2023-07-30T11:10:20;93873.19;;;14.33;70.87
64687;BME280;51113;53.646;-113.674;2023-07-30T11:12:49;93877.66;;;14.32;70.82
64687;BME280;51113;53.646;-113.674;2023-07-30T11:15:18;93881.66;;;14.25;71.08
64687;BME280;51113;53.646;-113.674;2023-07-30T11:17:47;93881.88;;;14.28;71.49
64687;BME280;51113;53.646;-113.674;2023-07-30T11:20:25;93884.97;;;14.30;70.52
64687;BME280;51113;53.646;-113.674;2023-07-30T11:22:58;93876.31;;;14.35;70.23
64687;BME280;51113;53.646;-113.674;2023-07-30T11:25:27;93875.88;;;14.28;70.46
64687;BME280;51113;53.646;-113.674;2023-07-30T11:27:55;93880.91;;;14.19;71.45
64687;BME280;51113;53.646;-113.674;2023-07-30T11:30:24;93882.03;;;14.13;71.58
64687;BME280;51113;53.646;-113.674;2023-07-30T11:32:53;93880.19;;;14.13;71.58
64687;BME280;51113;53.646;-113.674;2023-07-30T11:35:22;93877.16;;;14.01;72.12
64687;BME280;51113;53.646;-113.674;2023-07-30T11:37:50;93873.00;;;14.00;71.72
64687;BME280;51113;53.646;-113.674;2023-07-30T11:40:20;93870.13;;;14.02;71.75
64687;BME280;51113;53.646;-113.674;2023-07-30T11:42:50;93867.72;;;14.05;71.25
64687;BME280;51113;53.646;-113.674;2023-07-30T11:45:22;93863.59;;;13.99;71.93
64687;BME280;51113;53.646;-113.674;2023-07-30T11:47:51;93865.16;;;14.00;71.81
64687;BME280;51113;53.646;-113.674;2023-07-30T11:50:20;93863.88;;;13.98;71.79
64687;BME280;51113;53.646;-113.674;2023-07-30T11:52:53;93868.31;;;13.97;71.90
64687;BME280;51113;53.646;-113.674;2023-07-30T11:55:23;93866.25;;;13.94;72.10
64687;BME280;51113;53.646;-113.674;2023-07-30T11:57:57;93867.03;;;13.95;72.06
64687;BME280;51113;53.646;-113.674;2023-07-30T12:00:26;93876.16;;;13.97;71.63
64687;BME280;51113;53.646;-113.674;2023-07-30T12:02:55;93869.94;;;13.93;72.08
64687;BME280;51113;53.646;-113.674;2023-07-30T12:05:35;93861.31;;;13.93;71.72
64687;BME280;51113;53.646;-113.674;2023-07-30T12:08:05;93870.47;;;13.90;72.34
64687;BME280;51113;53.646;-113.674;2023-07-30T12:10:46;93863.47;;;13.85;72.40
64687;BME280;51113;53.646;-113.674;2023-07-30T12:13:20;93874.47;;;13.82;72.83
64687;BME280;51113;53.646;-113.674;2023-07-30T12:15:53;93869.47;;;13.86;72.16
64687;BME280;51113;53.646;-113.674;2023-07-30T12:18:22;93871.50;;;13.94;71.55
64687;BME280;51113;53.646;-113.674;2023-07-30T12:20:53;93872.03;;;13.91;72.45
64687;BME280;51113;53.646;-113.674;2023-07-30T12:23:22;93867.63;;;13.86;72.31
64687;BME280;51113;53.646;-113.674;2023-07-30T12:25:51;93870.75;;;13.88;72.31
64687;BME280;51113;53.646;-113.674;2023-07-30T12:28:21;93866.09;;;13.85;72.18
64687;BME280;51113;53.646;-113.674;2023-07-30T12:30:50;93859.25;;;13.89;72.10
64687;BME280;51113;53.646;-113.674;2023-07-30T12:33:21;93862.16;;;13.88;72.17
64687;BME280;51113;53.646;-113.674;2023-07-30T12:35:50;93867.81;;;13.95;71.90
64687;BME280;51113;53.646;-113.674;2023-07-30T12:38:19;93852.72;;;13.92;71.60
64687;BME280;51113;53.646;-113.674;2023-07-30T12:40:47;93855.78;;;13.99;71.48
64687;BME280;51113;53.646;-113.674;2023-07-30T12:43:16;93863.59;;;13.99;71.30
64687;BME280;51113;53.646;-113.674;2023-07-30T12:45:47;93857.09;;;13.97;72.11